Terminal Aerodrome Forecast
Issued by NWS Midland/Odessa, TX

Home | Current Version | Previous Version | Text Only | Print | Product List | Glossary On
Versions: 1 2 3 4 5 6 7 8 9 10 11 12 13 14 15 16 17 18 19 20 21 22 23 24 25 26
000
FTUS44 KMAF 192300 RRA
TAFMAF
TAF
KMAF 192341Z 2000/2024 12009KT P6SM SCT030 OVC040
      TEMPO 2003/2007 1SM TSRA BR OVC015CB
     FM200700 12006KT P6SM OVC015
      TEMPO 2007/2011 1SM TSRA BR OVC005CB
     FM201100 13008KT P6SM OVC010
      TEMPO 2011/2015 2SM TSRA BR OVC005CB=

USA.gov is the U.S. government's official web portal to all federal, state and local government web resources and services.